sensor_id;sensor_type;location;lat;lon;timestamp;P1;durP1;ratioP1;P2;durP2;ratioP2
10687;SDS011;5392;42.688;23.298;2022-11-14T00:00:59;86.35;;;48.85;;
10687;SDS011;5392;42.688;23.298;2022-11-14T00:03:31;96.80;;;51.40;;
10687;SDS011;5392;42.688;23.298;2022-11-14T00:05:57;101.93;;;53.67;;
10687;SDS011;5392;42.688;23.298;2022-11-14T00:08:24;96.43;;;52.25;;
10687;SDS011;5392;42.688;23.298;2022-11-14T00:10:50;87.55;;;50.65;;
10687;SDS011;5392;42.688;23.298;2022-11-14T00:13:18;96.82;;;52.10;;
10687;SDS011;5392;42.688;23.298;2022-11-14T00:15:50;122.22;;;64.18;;
10687;SDS011;5392;42.688;23.298;2022-11-14T00:18:19;114.80;;;58.63;;
10687;SDS011;5392;42.688;23.298;2022-11-14T00:20:47;109.63;;;59.08;;
10687;SDS011;5392;42.688;23.298;2022-11-14T00:23:15;112.15;;;57.97;;
10687;SDS011;5392;42.688;23.298;2022-11-14T00:25:43;110.65;;;57.38;;
10687;SDS011;5392;42.688;23.298;2022-11-14T00:28:10;110.32;;;55.42;;
10687;SDS011;5392;42.688;23.298;2022-11-14T00:30:37;107.13;;;55.10;;
10687;SDS011;5392;42.688;23.298;2022-11-14T00:33:04;102.13;;;53.58;;
10687;SDS011;5392;42.688;23.298;2022-11-14T00:35:31;100.65;;;54.58;;
10687;SDS011;5392;42.688;23.298;2022-11-14T00:37:57;101.88;;;54.08;;
10687;SDS011;5392;42.688;23.298;2022-11-14T00:40:24;102.68;;;52.80;;
10687;SDS011;5392;42.688;23.298;2022-11-14T00:42:50;98.95;;;53.75;;
10687;SDS011;5392;42.688;23.298;2022-11-14T00:45:17;105.68;;;55.22;;
10687;SDS011;5392;42.688;23.298;2022-11-14T00:47:44;99.65;;;54.47;;
10687;SDS011;5392;42.688;23.298;2022-11-14T00:50:11;102.80;;;55.20;;
10687;SDS011;5392;42.688;23.298;2022-11-14T00:52:38;100.88;;;54.30;;
10687;SDS011;5392;42.688;23.298;2022-11-14T00:55:04;103.80;;;55.78;;
10687;SDS011;5392;42.688;23.298;2022-11-14T00:57:32;103.53;;;55.13;;
10687;SDS011;5392;42.688;23.298;2022-11-14T00:59:58;103.25;;;55.13;;
10687;SDS011;5392;42.688;23.298;2022-11-14T01:02:25;105.93;;;56.60;;
10687;SDS011;5392;42.688;23.298;2022-11-14T01:04:52;106.80;;;54.50;;
10687;SDS011;5392;42.688;23.298;2022-11-14T01:07:19;108.38;;;59.28;;
10687;SDS011;5392;42.688;23.298;2022-11-14T01:09:45;109.32;;;58.13;;
10687;SDS011;5392;42.688;23.298;2022-11-14T01:12:12;105.45;;;56.58;;
10687;SDS011;5392;42.688;23.298;2022-11-14T01:14:39;113.25;;;60.38;;
10687;SDS011;5392;42.688;23.298;2022-11-14T01:19:53;118.05;;;61.50;;
10687;SDS011;5392;42.688;23.298;2022-11-14T01:22:20;113.60;;;63.17;;
10687;SDS011;5392;42.688;23.298;2022-11-14T01:24:47;116.50;;;61.00;;
10687;SDS011;5392;42.688;23.298;2022-11-14T01:27:13;104.75;;;55.63;;
10687;SDS011;5392;42.688;23.298;2022-11-14T01:29:40;101.95;;;54.05;;
10687;SDS011;5392;42.688;23.298;2022-11-14T01:32:06;105.50;;;55.60;;
10687;SDS011;5392;42.688;23.298;2022-11-14T01:34:33;94.70;;;54.28;;
10687;SDS011;5392;42.688;23.298;2022-11-14T01:37:00;94.60;;;51.85;;
10687;SDS011;5392;42.688;23.298;2022-11-14T01:39:27;99.57;;;52.83;;
10687;SDS011;5392;42.688;23.298;2022-11-14T01:41:54;96.68;;;51.35;;
10687;SDS011;5392;42.688;23.298;2022-11-14T01:47:09;89.53;;;47.50;;
10687;SDS011;5392;42.688;23.298;2022-11-14T01:49:40;90.63;;;49.70;;
10687;SDS011;5392;42.688;23.298;2022-11-14T01:52:10;92.68;;;48.42;;
10687;SDS011;5392;42.688;23.298;2022-11-14T01:54:42;94.80;;;49.10;;
10687;SDS011;5392;42.688;23.298;2022-11-14T01:57:12;92.20;;;49.42;;
10687;SDS011;5392;42.688;23.298;2022-11-14T01:59:45;93.70;;;51.40;;
10687;SDS011;5392;42.688;23.298;2022-11-14T02:02:18;96.63;;;52.88;;
10687;SDS011;5392;42.688;23.298;2022-11-14T02:04:48;97.75;;;54.70;;
10687;SDS011;5392;42.688;23.298;2022-11-14T02:07:18;100.57;;;54.03;;
10687;SDS011;5392;42.688;23.298;2022-11-14T02:09:46;92.78;;;51.45;;
10687;SDS011;5392;42.688;23.298;2022-11-14T02:12:15;97.70;;;51.30;;
10687;SDS011;5392;42.688;23.298;2022-11-14T02:14:44;93.30;;;50.90;;
10687;SDS011;5392;42.688;23.298;2022-11-14T02:17:13;95.97;;;51.45;;
10687;SDS011;5392;42.688;23.298;2022-11-14T02:20:06;89.88;;;49.03;;
10687;SDS011;5392;42.688;23.298;2022-11-14T02:22:36;91.60;;;47.88;;
10687;SDS011;5392;42.688;23.298;2022-11-14T02:25:05;89.47;;;48.58;;
10687;SDS011;5392;42.688;23.298;2022-11-14T02:27:32;95.20;;;47.33;;
10687;SDS011;5392;42.688;23.298;2022-11-14T02:30:07;90.47;;;47.30;;
10687;SDS011;5392;42.688;23.298;2022-11-14T02:32:39;93.53;;;46.97;;
10687;SDS011;5392;42.688;23.298;2022-11-14T02:35:26;100.00;;;52.50;;
10687;SDS011;5392;42.688;23.298;2022-11-14T02:37:53;101.75;;;50.25;;
10687;SDS011;5392;42.688;23.298;2022-11-14T02:40:19;100.78;;;50.03;;
10687;SDS011;5392;42.688;23.298;2022-11-14T02:42:46;94.05;;;49.55;;
10687;SDS011;5392;42.688;23.298;2022-11-14T02:45:13;94.85;;;50.25;;
10687;SDS011;5392;42.688;23.298;2022-11-14T02:47:40;93.30;;;47.63;;
10687;SDS011;5392;42.688;23.298;2022-11-14T02:50:06;84.72;;;47.67;;
10687;SDS011;5392;42.688;23.298;2022-11-14T02:52:33;95.93;;;49.83;;
10687;SDS011;5392;42.688;23.298;2022-11-14T02:55:00;95.28;;;47.13;;
10687;SDS011;5392;42.688;23.298;2022-11-14T02:57:26;89.47;;;46.53;;
10687;SDS011;5392;42.688;23.298;2022-11-14T02:59:53;87.28;;;45.45;;
10687;SDS011;5392;42.688;23.298;2022-11-14T03:02:20;83.28;;;46.13;;
10687;SDS011;5392;42.688;23.298;2022-11-14T03:04:46;87.35;;;47.58;;
10687;SDS011;5392;42.688;23.298;2022-11-14T03:07:13;93.00;;;49.13;;
10687;SDS011;5392;42.688;23.298;2022-11-14T03:09:40;94.80;;;46.83;;
10687;SDS011;5392;42.688;23.298;2022-11-14T03:12:06;86.90;;;46.33;;
10687;SDS011;5392;42.688;23.298;2022-11-14T03:14:33;94.95;;;47.25;;
10687;SDS011;5392;42.688;23.298;2022-11-14T03:17:00;84.82;;;46.67;;
10687;SDS011;5392;42.688;23.298;2022-11-14T03:19:27;83.35;;;44.60;;
10687;SDS011;5392;42.688;23.298;2022-11-14T03:21:53;85.22;;;45.80;;
10687;SDS011;5392;42.688;23.298;2022-11-14T03:24:20;88.68;;;45.15;;
10687;SDS011;5392;42.688;23.298;2022-11-14T03:26:47;85.03;;;44.70;;
10687;SDS011;5392;42.688;23.298;2022-11-14T03:29:14;87.85;;;46.45;;
10687;SDS011;5392;42.688;23.298;2022-11-14T03:31:41;80.88;;;43.60;;
10687;SDS011;5392;42.688;23.298;2022-11-14T03:34:08;82.40;;;44.33;;
10687;SDS011;5392;42.688;23.298;2022-11-14T03:36:36;77.80;;;43.67;;
10687;SDS011;5392;42.688;23.298;2022-11-14T03:39:03;82.05;;;41.80;;
10687;SDS011;5392;42.688;23.298;2022-11-14T03:41:31;76.55;;;38.90;;
10687;SDS011;5392;42.688;23.298;2022-11-14T03:43:58;68.28;;;38.40;;
10687;SDS011;5392;42.688;23.298;2022-11-14T03:46:24;77.10;;;40.90;;
10687;SDS011;5392;42.688;23.298;2022-11-14T03:48:51;73.25;;;38.75;;
10687;SDS011;5392;42.688;23.298;2022-11-14T03:51:18;68.75;;;37.60;;
10687;SDS011;5392;42.688;23.298;2022-11-14T03:53:44;72.60;;;39.22;;
10687;SDS011;5392;42.688;23.298;2022-11-14T03:56:11;67.28;;;37.72;;
10687;SDS011;5392;42.688;23.298;2022-11-14T03:58:38;68.25;;;38.45;;
10687;SDS011;5392;42.688;23.298;2022-11-14T04:01:04;71.10;;;38.03;;
10687;SDS011;5392;42.688;23.298;2022-11-14T04:03:31;87.45;;;48.30;;
10687;SDS011;5392;42.688;23.298;2022-11-14T04:05:58;82.75;;;47.10;;
10687;SDS011;5392;42.688;23.298;2022-11-14T04:08:25;76.25;;;41.17;;
10687;SDS011;5392;42.688;23.298;2022-11-14T04:10:51;77.68;;;42.83;;
10687;SDS011;5392;42.688;23.298;2022-11-14T04:13:18;83.45;;;47.15;;
10687;SDS011;5392;42.688;23.298;2022-11-14T04:15:44;73.60;;;40.65;;
10687;SDS011;5392;42.688;23.298;2022-11-14T04:18:11;67.60;;;37.28;;
10687;SDS011;5392;42.688;23.298;2022-11-14T04:20:38;70.68;;;38.90;;
10687;SDS011;5392;42.688;23.298;2022-11-14T04:23:04;69.85;;;36.72;;
10687;SDS011;5392;42.688;23.298;2022-11-14T04:25:31;73.32;;;37.28;;
10687;SDS011;5392;42.688;23.298;2022-11-14T04:27:58;69.80;;;38.17;;
10687;SDS011;5392;42.688;23.298;2022-11-14T04:30:24;73.88;;;38.25;;
10687;SDS011;5392;42.688;23.298;2022-11-14T04:32:57;73.68;;;37.45;;
10687;SDS011;5392;42.688;23.298;2022-11-14T04:35:23;70.93;;;36.80;;
10687;SDS011;5392;42.688;23.298;2022-11-14T04:37:50;69.50;;;36.85;;
10687;SDS011;5392;42.688;23.298;2022-11-14T04:40:17;65.00;;;35.42;;
10687;SDS011;5392;42.688;23.298;2022-11-14T04:42:43;69.15;;;36.65;;
10687;SDS011;5392;42.688;23.298;2022-11-14T04:45:28;66.03;;;35.65;;
10687;SDS011;5392;42.688;23.298;2022-11-14T04:47:55;71.68;;;36.70;;
10687;SDS011;5392;42.688;23.298;2022-11-14T04:50:22;66.70;;;36.20;;
10687;SDS011;5392;42.688;23.298;2022-11-14T04:52:52;66.65;;;35.50;;
10687;SDS011;5392;42.688;23.298;2022-11-14T04:55:19;75.60;;;36.95;;
10687;SDS011;5392;42.688;23.298;2022-11-14T04:57:45;73.43;;;35.95;;
10687;SDS011;5392;42.688;23.298;2022-11-14T05:00:12;72.28;;;37.08;;
10687;SDS011;5392;42.688;23.298;2022-11-14T05:02:40;80.38;;;37.33;;
10687;SDS011;5392;42.688;23.298;2022-11-14T05:05:06;72.70;;;36.17;;
10687;SDS011;5392;42.688;23.298;2022-11-14T05:07:33;74.53;;;35.85;;
10687;SDS011;5392;42.688;23.298;2022-11-14T05:10:00;74.93;;;37.03;;
10687;SDS011;5392;42.688;23.298;2022-11-14T05:12:27;85.97;;;39.70;;
10687;SDS011;5392;42.688;23.298;2022-11-14T05:14:53;85.70;;;38.58;;
10687;SDS011;5392;42.688;23.298;2022-11-14T05:17:21;90.32;;;39.67;;
10687;SDS011;5392;42.688;23.298;2022-11-14T05:19:47;88.13;;;40.47;;
10687;SDS011;5392;42.688;23.298;2022-11-14T05:22:14;93.05;;;40.35;;
10687;SDS011;5392;42.688;23.298;2022-11-14T05:24:41;100.60;;;43.28;;
10687;SDS011;5392;42.688;23.298;2022-11-14T05:27:07;95.05;;;40.28;;
10687;SDS011;5392;42.688;23.298;2022-11-14T05:29:34;120.32;;;43.83;;
10687;SDS011;5392;42.688;23.298;2022-11-14T05:32:00;266.60;;;45.75;;
10687;SDS011;5392;42.688;23.298;2022-11-14T05:34:27;366.75;;;49.42;;
10687;SDS011;5392;42.688;23.298;2022-11-14T05:36:54;187.18;;;46.38;;
10687;SDS011;5392;42.688;23.298;2022-11-14T05:39:21;202.95;;;46.47;;
10687;SDS011;5392;42.688;23.298;2022-11-14T05:41:47;250.73;;;48.50;;
10687;SDS011;5392;42.688;23.298;2022-11-14T05:44:14;377.70;;;54.13;;
10687;SDS011;5392;42.688;23.298;2022-11-14T05:46:40;140.65;;;46.25;;
10687;SDS011;5392;42.688;23.298;2022-11-14T05:49:07;182.30;;;48.70;;
10687;SDS011;5392;42.688;23.298;2022-11-14T05:51:34;204.65;;;51.83;;
10687;SDS011;5392;42.688;23.298;2022-11-14T05:54:00;212.70;;;50.58;;
10687;SDS011;5392;42.688;23.298;2022-11-14T05:56:27;271.80;;;51.17;;
10687;SDS011;5392;42.688;23.298;2022-11-14T05:58:54;371.00;;;50.60;;
10687;SDS011;5392;42.688;23.298;2022-11-14T06:01:21;248.48;;;47.70;;
10687;SDS011;5392;42.688;23.298;2022-11-14T06:03:48;327.88;;;49.25;;
10687;SDS011;5392;42.688;23.298;2022-11-14T06:06:16;238.07;;;51.03;;
10687;SDS011;5392;42.688;23.298;2022-11-14T06:08:45;319.83;;;49.97;;
10687;SDS011;5392;42.688;23.298;2022-11-14T06:11:16;272.20;;;52.60;;
10687;SDS011;5392;42.688;23.298;2022-11-14T06:13:45;463.80;;;53.40;;
10687;SDS011;5392;42.688;23.298;2022-11-14T06:16:13;299.13;;;50.83;;
10687;SDS011;5392;42.688;23.298;2022-11-14T06:18:42;243.57;;;50.88;;
10687;SDS011;5392;42.688;23.298;2022-11-14T06:23:38;155.13;;;50.15;;
10687;SDS011;5392;42.688;23.298;2022-11-14T06:26:05;384.80;;;55.17;;
10687;SDS011;5392;42.688;23.298;2022-11-14T06:28:38;279.58;;;51.50;;
10687;SDS011;5392;42.688;23.298;2022-11-14T06:31:04;198.02;;;49.78;;
10687;SDS011;5392;42.688;23.298;2022-11-14T06:33:34;310.75;;;52.63;;
10687;SDS011;5392;42.688;23.298;2022-11-14T06:36:03;207.15;;;50.13;;
10687;SDS011;5392;42.688;23.298;2022-11-14T06:38:34;156.05;;;47.85;;
10687;SDS011;5392;42.688;23.298;2022-11-14T06:41:03;262.10;;;51.53;;
10687;SDS011;5392;42.688;23.298;2022-11-14T06:43:44;140.10;;;48.65;;
10687;SDS011;5392;42.688;23.298;2022-11-14T06:46:14;292.42;;;51.08;;
10687;SDS011;5392;42.688;23.298;2022-11-14T06:48:43;180.65;;;47.33;;
10687;SDS011;5392;42.688;23.298;2022-11-14T06:51:10;152.88;;;48.60;;
10687;SDS011;5392;42.688;23.298;2022-11-14T06:53:38;160.63;;;46.30;;
10687;SDS011;5392;42.688;23.298;2022-11-14T06:56:06;158.93;;;47.17;;
10687;SDS011;5392;42.688;23.298;2022-11-14T06:58:44;154.50;;;44.08;;
10687;SDS011;5392;42.688;23.298;2022-11-14T07:01:14;112.25;;;46.80;;
10687;SDS011;5392;42.688;23.298;2022-11-14T07:03:43;193.98;;;45.50;;
10687;SDS011;5392;42.688;23.298;2022-11-14T07:06:15;176.48;;;42.60;;
10687;SDS011;5392;42.688;23.298;2022-11-14T07:08:43;84.47;;;37.95;;
10687;SDS011;5392;42.688;23.298;2022-11-14T07:11:11;84.50;;;40.90;;
10687;SDS011;5392;42.688;23.298;2022-11-14T07:13:49;77.65;;;37.47;;
10687;SDS011;5392;42.688;23.298;2022-11-14T07:16:17;78.18;;;38.38;;
10687;SDS011;5392;42.688;23.298;2022-11-14T07:18:45;80.28;;;35.92;;
10687;SDS011;5392;42.688;23.298;2022-11-14T07:21:12;63.58;;;32.45;;
10687;SDS011;5392;42.688;23.298;2022-11-14T07:23:39;58.70;;;31.80;;
10687;SDS011;5392;42.688;23.298;2022-11-14T07:26:09;64.53;;;33.25;;
10687;SDS011;5392;42.688;23.298;2022-11-14T07:28:37;64.95;;;33.20;;
10687;SDS011;5392;42.688;23.298;2022-11-14T07:31:06;71.72;;;36.42;;
10687;SDS011;5392;42.688;23.298;2022-11-14T07:33:34;70.13;;;35.60;;
10687;SDS011;5392;42.688;23.298;2022-11-14T07:36:01;79.78;;;37.17;;
10687;SDS011;5392;42.688;23.298;2022-11-14T07:38:29;65.13;;;34.55;;
10687;SDS011;5392;42.688;23.298;2022-11-14T07:40:58;69.82;;;36.22;;
10687;SDS011;5392;42.688;23.298;2022-11-14T07:43:26;66.95;;;34.00;;
10687;SDS011;5392;42.688;23.298;2022-11-14T07:45:57;63.47;;;34.75;;
10687;SDS011;5392;42.688;23.298;2022-11-14T07:48:25;63.92;;;34.15;;
10687;SDS011;5392;42.688;23.298;2022-11-14T07:50:56;65.57;;;35.88;;
10687;SDS011;5392;42.688;23.298;2022-11-14T07:53:24;62.60;;;35.58;;
10687;SDS011;5392;42.688;23.298;2022-11-14T07:55:51;65.60;;;34.80;;
10687;SDS011;5392;42.688;23.298;2022-11-14T07:58:17;147.48;;;41.17;;
10687;SDS011;5392;42.688;23.298;2022-11-14T08:00:44;114.68;;;40.20;;
10687;SDS011;5392;42.688;23.298;2022-11-14T08:03:11;80.85;;;39.83;;
10687;SDS011;5392;42.688;23.298;2022-11-14T08:05:38;85.25;;;40.53;;
10687;SDS011;5392;42.688;23.298;2022-11-14T08:08:04;77.78;;;38.50;;
10687;SDS011;5392;42.688;23.298;2022-11-14T08:10:31;72.40;;;39.67;;
10687;SDS011;5392;42.688;23.298;2022-11-14T08:12:59;76.30;;;40.25;;
10687;SDS011;5392;42.688;23.298;2022-11-14T08:15:48;72.50;;;39.13;;
10687;SDS011;5392;42.688;23.298;2022-11-14T08:18:14;60.17;;;35.78;;
10687;SDS011;5392;42.688;23.298;2022-11-14T08:20:41;55.65;;;34.33;;
10687;SDS011;5392;42.688;23.298;2022-11-14T08:23:09;59.85;;;35.97;;
10687;SDS011;5392;42.688;23.298;2022-11-14T08:25:40;63.42;;;35.85;;
10687;SDS011;5392;42.688;23.298;2022-11-14T08:28:07;59.58;;;36.80;;
10687;SDS011;5392;42.688;23.298;2022-11-14T08:30:34;61.05;;;37.22;;
10687;SDS011;5392;42.688;23.298;2022-11-14T08:33:01;56.53;;;35.20;;
10687;SDS011;5392;42.688;23.298;2022-11-14T08:35:30;58.63;;;36.45;;
10687;SDS011;5392;42.688;23.298;2022-11-14T08:37:59;52.97;;;34.50;;
10687;SDS011;5392;42.688;23.298;2022-11-14T08:40:28;51.67;;;32.63;;
10687;SDS011;5392;42.688;23.298;2022-11-14T08:42:58;48.75;;;32.38;;
10687;SDS011;5392;42.688;23.298;2022-11-14T08:45:27;50.45;;;32.38;;
10687;SDS011;5392;42.688;23.298;2022-11-14T08:47:54;51.70;;;32.15;;
10687;SDS011;5392;42.688;23.298;2022-11-14T08:50:22;48.92;;;32.47;;
10687;SDS011;5392;42.688;23.298;2022-11-14T08:52:50;48.45;;;31.27;;
10687;SDS011;5392;42.688;23.298;2022-11-14T08:55:17;46.22;;;28.58;;
10687;SDS011;5392;42.688;23.298;2022-11-14T08:57:45;47.15;;;30.17;;
10687;SDS011;5392;42.688;23.298;2022-11-14T09:00:15;43.25;;;28.60;;
10687;SDS011;5392;42.688;23.298;2022-11-14T09:02:42;46.05;;;29.83;;
10687;SDS011;5392;42.688;23.298;2022-11-14T09:05:09;45.88;;;30.25;;
10687;SDS011;5392;42.688;23.298;2022-11-14T09:07:36;49.40;;;31.65;;
10687;SDS011;5392;42.688;23.298;2022-11-14T09:10:03;47.78;;;30.77;;
10687;SDS011;5392;42.688;23.298;2022-11-14T09:12:31;43.67;;;30.63;;
10687;SDS011;5392;42.688;23.298;2022-11-14T09:14:58;45.33;;;31.85;;
10687;SDS011;5392;42.688;23.298;2022-11-14T09:17:25;46.50;;;32.05;;
10687;SDS011;5392;42.688;23.298;2022-11-14T09:19:52;51.03;;;32.42;;
10687;SDS011;5392;42.688;23.298;2022-11-14T09:22:19;51.10;;;32.08;;
10687;SDS011;5392;42.688;23.298;2022-11-14T09:24:46;58.83;;;35.05;;
10687;SDS011;5392;42.688;23.298;2022-11-14T09:27:13;50.75;;;33.65;;
10687;SDS011;5392;42.688;23.298;2022-11-14T09:29:39;54.90;;;34.20;;
10687;SDS011;5392;42.688;23.298;2022-11-14T09:32:06;54.53;;;35.95;;
10687;SDS011;5392;42.688;23.298;2022-11-14T09:34:33;56.47;;;35.63;;
10687;SDS011;5392;42.688;23.298;2022-11-14T09:36:59;57.47;;;36.35;;
10687;SDS011;5392;42.688;23.298;2022-11-14T09:39:26;50.95;;;33.88;;
10687;SDS011;5392;42.688;23.298;2022-11-14T09:47:15;55.55;;;32.70;;
10687;SDS011;5392;42.688;23.298;2022-11-14T09:49:46;55.10;;;35.97;;
10687;SDS011;5392;42.688;23.298;2022-11-14T09:54:56;66.13;;;39.17;;
10687;SDS011;5392;42.688;23.298;2022-11-14T09:57:24;60.72;;;37.05;;
10687;SDS011;5392;42.688;23.298;2022-11-14T09:59:52;57.80;;;36.67;;
10687;SDS011;5392;42.688;23.298;2022-11-14T10:02:36;63.25;;;39.13;;
10687;SDS011;5392;42.688;23.298;2022-11-14T10:07:53;67.18;;;38.65;;
10687;SDS011;5392;42.688;23.298;2022-11-14T10:13:33;68.60;;;41.53;;
10687;SDS011;5392;42.688;23.298;2022-11-14T10:16:29;72.03;;;39.75;;
10687;SDS011;5392;42.688;23.298;2022-11-14T10:19:17;69.15;;;41.80;;
10687;SDS011;5392;42.688;23.298;2022-11-14T10:39:02;67.97;;;38.92;;
10687;SDS011;5392;42.688;23.298;2022-11-14T10:41:36;73.07;;;41.65;;
10687;SDS011;5392;42.688;23.298;2022-11-14T10:44:25;70.68;;;41.78;;
10687;SDS011;5392;42.688;23.298;2022-11-14T10:47:00;64.78;;;41.47;;
10687;SDS011;5392;42.688;23.298;2022-11-14T10:49:30;66.72;;;40.70;;
10687;SDS011;5392;42.688;23.298;2022-11-14T10:52:02;67.78;;;39.65;;
10687;SDS011;5392;42.688;23.298;2022-11-14T10:54:35;65.97;;;42.00;;
10687;SDS011;5392;42.688;23.298;2022-11-14T10:57:16;66.15;;;40.40;;
10687;SDS011;5392;42.688;23.298;2022-11-14T10:59:45;63.60;;;40.42;;
10687;SDS011;5392;42.688;23.298;2022-11-14T11:02:15;67.47;;;40.55;;
10687;SDS011;5392;42.688;23.298;2022-11-14T11:04:42;69.95;;;41.67;;
10687;SDS011;5392;42.688;23.298;2022-11-14T11:10:00;64.63;;;40.40;;
10687;SDS011;5392;42.688;23.298;2022-11-14T11:12:47;62.45;;;40.92;;
10687;SDS011;5392;42.688;23.298;2022-11-14T11:15:20;63.75;;;40.65;;
10687;SDS011;5392;42.688;23.298;2022-11-14T11:17:58;61.45;;;40.33;;
10687;SDS011;5392;42.688;23.298;2022-11-14T11:25:32;69.20;;;42.78;;
10687;SDS011;5392;42.688;23.298;2022-11-14T11:28:16;65.32;;;41.50;;
10687;SDS011;5392;42.688;23.298;2022-11-14T11:30:54;63.63;;;42.75;;
10687;SDS011;5392;42.688;23.298;2022-11-14T11:35:49;67.95;;;41.72;;
10687;SDS011;5392;42.688;23.298;2022-11-14T11:38:18;72.55;;;43.53;;
10687;SDS011;5392;42.688;23.298;2022-11-14T11:40:47;67.97;;;41.67;;
10687;SDS011;5392;42.688;23.298;2022-11-14T11:48:53;69.22;;;43.38;;
10687;SDS011;5392;42.688;23.298;2022-11-14T11:51:26;73.05;;;44.17;;
10687;SDS011;5392;42.688;23.298;2022-11-14T11:54:03;62.33;;;42.03;;
10687;SDS011;5392;42.688;23.298;2022-11-14T11:56:37;69.90;;;44.00;;
10687;SDS011;5392;42.688;23.298;2022-11-14T12:02:24;77.85;;;45.10;;
10687;SDS011;5392;42.688;23.298;2022-11-14T12:04:53;74.10;;;43.92;;
10687;SDS011;5392;42.688;23.298;2022-11-14T12:07:24;66.57;;;44.33;;
10687;SDS011;5392;42.688;23.298;2022-11-14T12:09:56;74.00;;;45.83;;
10687;SDS011;5392;42.688;23.298;2022-11-14T12:15:30;71.15;;;46.17;;
10687;SDS011;5392;42.688;23.298;2022-11-14T12:26:31;75.72;;;45.50;;
10687;SDS011;5392;42.688;23.298;2022-11-14T12:31:47;75.55;;;48.65;;
10687;SDS011;5392;42.688;23.298;2022-11-14T12:34:26;76.03;;;47.67;;
10687;SDS011;5392;42.688;23.298;2022-11-14T12:36:57;68.20;;;46.75;;
10687;SDS011;5392;42.688;23.298;2022-11-14T12:39:28;70.05;;;46.22;;
10687;SDS011;5392;42.688;23.298;2022-11-14T12:42:00;71.70;;;47.03;;
10687;SDS011;5392;42.688;23.298;2022-11-14T12:44:30;72.05;;;46.83;;
10687;SDS011;5392;42.688;23.298;2022-11-14T12:49:35;74.45;;;48.83;;
10687;SDS011;5392;42.688;23.298;2022-11-14T12:52:03;73.60;;;47.90;;
10687;SDS011;5392;42.688;23.298;2022-11-14T12:54:50;72.22;;;46.88;;
10687;SDS011;5392;42.688;23.298;2022-11-14T12:57:20;71.53;;;47.70;;
10687;SDS011;5392;42.688;23.298;2022-11-14T13:00:14;70.93;;;47.67;;
10687;SDS011;5392;42.688;23.298;2022-11-14T13:03:26;70.20;;;46.97;;
10687;SDS011;5392;42.688;23.298;2022-11-14T13:08:51;74.70;;;47.70;;
10687;SDS011;5392;42.688;23.298;2022-11-14T13:14:27;76.70;;;48.05;;
10687;SDS011;5392;42.688;23.298;2022-11-14T13:20:02;79.72;;;50.30;;
10687;SDS011;5392;42.688;23.298;2022-11-14T13:33:43;71.50;;;48.08;;
10687;SDS011;5392;42.688;23.298;2022-11-14T13:36:20;79.45;;;48.25;;
10687;SDS011;5392;42.688;23.298;2022-11-14T13:45:28;72.00;;;48.83;;
10687;SDS011;5392;42.688;23.298;2022-11-14T13:50:50;73.50;;;49.53;;
10687;SDS011;5392;42.688;23.298;2022-11-14T13:53:40;70.47;;;47.58;;
10687;SDS011;5392;42.688;23.298;2022-11-14T13:56:30;73.50;;;47.15;;
10687;SDS011;5392;42.688;23.298;2022-11-14T14:02:15;75.75;;;49.42;;
10687;SDS011;5392;42.688;23.298;2022-11-14T14:10:24;79.07;;;48.28;;
10687;SDS011;5392;42.688;23.298;2022-11-14T14:15:48;76.20;;;49.33;;
10687;SDS011;5392;42.688;23.298;2022-11-14T14:21:30;73.78;;;48.40;;
10687;SDS011;5392;42.688;23.298;2022-11-14T14:29:39;86.05;;;47.97;;
10687;SDS011;5392;42.688;23.298;2022-11-14T14:32:14;78.18;;;47.47;;
10687;SDS011;5392;42.688;23.298;2022-11-14T14:34:43;80.43;;;49.88;;
10687;SDS011;5392;42.688;23.298;2022-11-14T14:37:20;77.53;;;46.25;;
10687;SDS011;5392;42.688;23.298;2022-11-14T14:40:22;76.25;;;47.72;;
10687;SDS011;5392;42.688;23.298;2022-11-14T14:42:54;79.72;;;48.65;;
10687;SDS011;5392;42.688;23.298;2022-11-14T14:45:24;82.15;;;46.70;;
10687;SDS011;5392;42.688;23.298;2022-11-14T14:53:04;81.53;;;45.88;;
10687;SDS011;5392;42.688;23.298;2022-11-14T14:55:33;78.22;;;46.92;;
10687;SDS011;5392;42.688;23.298;2022-11-14T15:00:52;75.75;;;47.30;;
10687;SDS011;5392;42.688;23.298;2022-11-14T15:03:22;83.57;;;48.83;;
10687;SDS011;5392;42.688;23.298;2022-11-14T15:05:57;82.93;;;49.00;;
10687;SDS011;5392;42.688;23.298;2022-11-14T15:08:26;81.68;;;49.80;;
10687;SDS011;5392;42.688;23.298;2022-11-14T15:10:57;86.35;;;48.22;;
10687;SDS011;5392;42.688;23.298;2022-11-14T15:13:26;91.68;;;51.30;;
10687;SDS011;5392;42.688;23.298;2022-11-14T15:15:55;87.68;;;52.13;;
10687;SDS011;5392;42.688;23.298;2022-11-14T15:18:25;88.93;;;51.80;;
10687;SDS011;5392;42.688;23.298;2022-11-14T15:24:00;88.30;;;50.90;;
10687;SDS011;5392;42.688;23.298;2022-11-14T15:26:29;88.88;;;51.65;;
10687;SDS011;5392;42.688;23.298;2022-11-14T15:29:06;92.78;;;52.42;;
10687;SDS011;5392;42.688;23.298;2022-11-14T15:31:46;85.72;;;51.78;;
10687;SDS011;5392;42.688;23.298;2022-11-14T15:34:32;89.80;;;53.83;;
10687;SDS011;5392;42.688;23.298;2022-11-14T15:39:39;91.65;;;52.92;;
10687;SDS011;5392;42.688;23.298;2022-11-14T15:44:54;87.40;;;53.10;;
10687;SDS011;5392;42.688;23.298;2022-11-14T15:47:28;89.97;;;53.42;;
10687;SDS011;5392;42.688;23.298;2022-11-14T15:55:21;97.57;;;54.47;;
10687;SDS011;5392;42.688;23.298;2022-11-14T15:57:49;92.65;;;53.92;;
10687;SDS011;5392;42.688;23.298;2022-11-14T16:00:36;107.80;;;59.53;;
10687;SDS011;5392;42.688;23.298;2022-11-14T16:03:09;109.32;;;61.22;;
10687;SDS011;5392;42.688;23.298;2022-11-14T16:05:39;106.32;;;60.67;;
10687;SDS011;5392;42.688;23.298;2022-11-14T16:08:08;105.32;;;60.15;;
10687;SDS011;5392;42.688;23.298;2022-11-14T16:10:36;98.25;;;60.83;;
10687;SDS011;5392;42.688;23.298;2022-11-14T16:13:03;105.00;;;60.88;;
10687;SDS011;5392;42.688;23.298;2022-11-14T16:15:31;100.78;;;60.30;;
10687;SDS011;5392;42.688;23.298;2022-11-14T16:17:57;109.40;;;61.08;;
10687;SDS011;5392;42.688;23.298;2022-11-14T16:20:25;109.78;;;62.28;;
10687;SDS011;5392;42.688;23.298;2022-11-14T16:22:59;106.93;;;61.35;;
10687;SDS011;5392;42.688;23.298;2022-11-14T16:25:26;109.72;;;63.67;;
10687;SDS011;5392;42.688;23.298;2022-11-14T16:27:55;104.70;;;62.20;;
10687;SDS011;5392;42.688;23.298;2022-11-14T16:30:22;105.40;;;61.92;;
10687;SDS011;5392;42.688;23.298;2022-11-14T16:32:50;99.72;;;61.67;;
10687;SDS011;5392;42.688;23.298;2022-11-14T16:37:46;109.57;;;63.20;;
10687;SDS011;5392;42.688;23.298;2022-11-14T16:40:14;115.10;;;64.45;;
10687;SDS011;5392;42.688;23.298;2022-11-14T16:42:48;116.65;;;66.18;;
10687;SDS011;5392;42.688;23.298;2022-11-14T16:45:16;120.53;;;67.63;;
10687;SDS011;5392;42.688;23.298;2022-11-14T16:47:46;122.25;;;66.68;;
10687;SDS011;5392;42.688;23.298;2022-11-14T16:50:13;128.88;;;67.10;;
10687;SDS011;5392;42.688;23.298;2022-11-14T16:52:40;128.23;;;66.68;;
10687;SDS011;5392;42.688;23.298;2022-11-14T16:55:07;120.93;;;65.80;;
10687;SDS011;5392;42.688;23.298;2022-11-14T16:57:36;142.18;;;73.47;;
10687;SDS011;5392;42.688;23.298;2022-11-14T17:00:04;137.45;;;71.82;;
10687;SDS011;5392;42.688;23.298;2022-11-14T17:02:33;129.13;;;68.88;;